createdAt,value
2022-10-26T00:01:22.122Z,13.77
2022-10-26T00:03:49.950Z,9.17
2022-10-26T00:06:19.661Z,7.75
2022-10-26T00:08:49.648Z,7.15
2022-10-26T00:11:17.445Z,9.27
2022-10-26T00:13:46.473Z,9.05
2022-10-26T00:16:16.529Z,8.02
2022-10-26T00:18:44.554Z,7.72
2022-10-26T00:21:13.037Z,7.70
2022-10-26T00:23:40.715Z,11.07
2022-10-26T00:26:10.254Z,13.85
2022-10-26T00:28:37.943Z,10.25
2022-10-26T00:31:07.971Z,12.07
2022-10-26T00:33:36.371Z,9.00
2022-10-26T00:36:04.085Z,8.00
2022-10-26T00:38:31.739Z,6.83
2022-10-26T00:40:59.422Z,7.75
2022-10-26T00:43:40.976Z,7.20
2022-10-26T00:46:15.001Z,8.38
2022-10-26T00:48:45.738Z,8.93
2022-10-26T00:51:18.523Z,7.77
2022-10-26T00:53:46.201Z,9.52
2022-10-26T00:56:14.073Z,8.77
2022-10-26T00:58:43.559Z,8.33
2022-10-26T01:01:11.696Z,9.65
2022-10-26T01:03:39.882Z,6.70
2022-10-26T01:06:08.192Z,7.57
2022-10-26T01:08:35.987Z,7.93
2022-10-26T01:11:04.537Z,9.48
2022-10-26T01:13:35.801Z,9.57
2022-10-26T01:16:30.411Z,9.43
2022-10-26T01:19:07.170Z,8.73
2022-10-26T01:21:45.393Z,8.27
2022-10-26T01:24:24.119Z,10.00
2022-10-26T01:27:05.640Z,10.63
2022-10-26T01:30:04.392Z,9.07
2022-10-26T01:32:35.721Z,9.40
2022-10-26T01:35:07.793Z,8.93
2022-10-26T01:37:40.409Z,10.07
2022-10-26T01:40:11.906Z,8.13
2022-10-26T01:42:43.660Z,9.07
2022-10-26T01:45:13.242Z,7.63
2022-10-26T01:47:42.288Z,8.95
2022-10-26T01:50:11.404Z,8.93
2022-10-26T01:52:39.327Z,9.93
2022-10-26T01:55:28.628Z,8.05
2022-10-26T01:58:04.229Z,8.00
2022-10-26T02:00:36.975Z,8.57
2022-10-26T02:03:13.823Z,9.77
2022-10-26T02:05:55.268Z,7.97
2022-10-26T02:08:29.515Z,8.43
2022-10-26T02:11:05.195Z,8.55
2022-10-26T02:13:36.704Z,8.13
2022-10-26T02:16:15.733Z,10.38
2022-10-26T02:18:48.518Z,8.57
2022-10-26T02:21:19.025Z,8.60
2022-10-26T02:23:49.152Z,9.00
2022-10-26T02:26:19.297Z,9.07
2022-10-26T02:28:49.692Z,8.20
2022-10-26T02:31:18.611Z,8.10
2022-10-26T02:36:25.787Z,10.70
2022-10-26T02:38:54.288Z,8.07
2022-10-26T02:41:23.170Z,8.45
2022-10-26T02:43:54.777Z,7.18
2022-10-26T02:46:24.745Z,7.43
2022-10-26T02:48:53.915Z,11.55
2022-10-26T02:51:27.844Z,7.45
2022-10-26T02:53:59.153Z,8.60
2022-10-26T02:56:29.737Z,7.15
2022-10-26T02:59:01.234Z,7.57
2022-10-26T03:01:29.680Z,7.85
2022-10-26T03:03:59.872Z,7.70
2022-10-26T03:06:27.720Z,8.93
2022-10-26T03:08:55.399Z,9.32
2022-10-26T03:11:23.052Z,7.68
2022-10-26T03:13:50.745Z,8.55
2022-10-26T03:16:19.380Z,8.65
2022-10-26T03:18:46.994Z,8.30
2022-10-26T03:21:16.120Z,8.40
2022-10-26T03:23:43.741Z,8.82
2022-10-26T03:26:11.390Z,8.10
2022-10-26T03:28:39.010Z,10.20
2022-10-26T03:31:07.268Z,7.80
2022-10-26T03:33:34.979Z,10.18
2022-10-26T03:36:02.722Z,7.70
2022-10-26T03:38:31.829Z,9.73
2022-10-26T03:40:59.434Z,9.77
2022-10-26T03:43:27.067Z,9.18
2022-10-26T03:45:54.705Z,7.75
2022-10-26T03:48:22.297Z,8.88
2022-10-26T03:50:49.943Z,8.05
2022-10-26T03:53:17.623Z,9.57
2022-10-26T03:55:46.825Z,8.45
2022-10-26T03:58:14.516Z,8.23
2022-10-26T04:00:42.206Z,7.63
2022-10-26T04:03:09.870Z,11.20
2022-10-26T04:05:37.496Z,8.85
2022-10-26T04:08:05.276Z,11.00
2022-10-26T04:10:33.019Z,7.82
2022-10-26T04:13:02.301Z,7.78
2022-10-26T04:15:30.205Z,7.38
2022-10-26T04:17:58.284Z,6.20
2022-10-26T04:20:26.327Z,8.75
2022-10-26T04:23:01.072Z,7.90
2022-10-26T04:25:31.843Z,8.20
2022-10-26T04:28:02.844Z,7.65
2022-10-26T04:30:31.106Z,7.53
2022-10-26T04:32:58.738Z,6.40
2022-10-26T04:35:26.399Z,6.68
2022-10-26T04:37:58.315Z,8.03
2022-10-26T04:40:26.003Z,7.03
2022-10-26T04:42:53.788Z,6.78
2022-10-26T04:45:23.015Z,6.67
2022-10-26T04:48:00.618Z,8.85
2022-10-26T04:50:28.733Z,7.45
2022-10-26T04:52:56.375Z,6.05
2022-10-26T04:55:24.084Z,6.40
2022-10-26T04:57:54.768Z,8.60
2022-10-26T05:00:26.750Z,6.38
2022-10-26T05:03:00.077Z,6.60
2022-10-26T05:05:27.860Z,7.13
2022-10-26T05:07:55.901Z,5.80
2022-10-26T05:10:23.531Z,7.38
2022-10-26T05:12:52.292Z,6.05
2022-10-26T05:15:20.165Z,5.97
2022-10-26T05:17:49.404Z,7.05
2022-10-26T05:20:17.216Z,7.10
2022-10-26T05:22:44.850Z,7.63
2022-10-26T05:25:12.461Z,5.22
2022-10-26T05:27:40.155Z,6.20
2022-10-26T05:30:09.006Z,7.23
2022-10-26T05:32:36.663Z,6.13
2022-10-26T05:35:06.562Z,6.00
2022-10-26T05:37:34.247Z,5.47
2022-10-26T05:40:01.902Z,8.45
2022-10-26T05:42:29.659Z,6.97
2022-10-26T05:44:57.270Z,6.82
2022-10-26T05:47:24.928Z,5.90
2022-10-26T05:49:52.527Z,6.18
2022-10-26T05:52:21.590Z,4.97
2022-10-26T05:54:49.312Z,6.30
2022-10-26T05:57:17.490Z,6.00
2022-10-26T05:59:45.756Z,7.43
2022-10-26T06:02:20.451Z,7.43
2022-10-26T06:04:48.945Z,4.63
2022-10-26T06:07:18.367Z,4.40
2022-10-26T06:09:48.722Z,5.33
2022-10-26T06:12:19.604Z,5.20
2022-10-26T06:14:48.359Z,6.43
2022-10-26T06:17:28.829Z,5.90
2022-10-26T06:20:08.656Z,4.25
2022-10-26T06:22:43.864Z,9.65
2022-10-26T06:25:22.476Z,5.53
2022-10-26T06:27:55.825Z,5.18
2022-10-26T06:30:23.988Z,5.60
2022-10-26T06:33:01.169Z,7.80
2022-10-26T06:35:37.711Z,5.90
2022-10-26T06:38:09.352Z,6.25
2022-10-26T06:40:40.693Z,4.28
2022-10-26T06:43:13.401Z,4.45
2022-10-26T06:45:42.456Z,5.43
2022-10-26T06:48:11.659Z,5.30
2022-10-26T06:50:44.209Z,5.93
2022-10-26T06:53:20.083Z,6.75
2022-10-26T06:55:51.053Z,6.40
2022-10-26T06:58:20.205Z,4.85
2022-10-26T07:00:49.725Z,6.67
2022-10-26T07:03:17.831Z,5.18
2022-10-26T07:05:45.898Z,5.25
2022-10-26T07:08:13.706Z,4.65
2022-10-26T07:10:42.272Z,6.23
2022-10-26T07:13:11.874Z,4.18
2022-10-26T07:15:40.571Z,5.07
2022-10-26T07:18:09.081Z,4.45
2022-10-26T07:20:38.400Z,6.13
2022-10-26T07:23:08.028Z,8.23
2022-10-26T07:25:38.960Z,5.45
2022-10-26T07:28:07.517Z,5.82
2022-10-26T07:30:36.641Z,7.18
2022-10-26T07:33:06.787Z,4.47
2022-10-26T07:35:34.628Z,6.43
2022-10-26T07:38:02.955Z,6.63
2022-10-26T07:40:30.748Z,5.72
2022-10-26T07:42:59.218Z,6.05
2022-10-26T07:45:27.687Z,6.90
2022-10-26T07:47:56.767Z,5.67
2022-10-26T07:50:25.023Z,6.93
2022-10-26T07:52:52.887Z,5.50
2022-10-26T07:55:20.800Z,3.97
2022-10-26T07:57:51.048Z,4.22
2022-10-26T08:00:22.496Z,4.95
2022-10-26T08:02:50.192Z,5.00
2022-10-26T08:05:19.350Z,6.63
2022-10-26T08:07:47.687Z,4.45
2022-10-26T08:10:16.573Z,4.80
2022-10-26T08:12:44.892Z,6.40
2022-10-26T08:15:12.833Z,4.35
2022-10-26T08:17:40.478Z,4.80
2022-10-26T08:20:09.129Z,5.13
2022-10-26T08:22:38.153Z,7.30
2022-10-26T08:25:06.510Z,4.88
2022-10-26T08:27:34.170Z,3.63
2022-10-26T08:30:01.875Z,4.53
2022-10-26T08:32:29.558Z,6.38
2022-10-26T08:34:57.205Z,3.95
2022-10-26T08:37:25.151Z,6.55
2022-10-26T08:39:55.870Z,5.82
2022-10-26T08:42:30.357Z,4.10
2022-10-26T08:45:00.595Z,5.60
2022-10-26T08:47:30.024Z,6.22
2022-10-26T08:50:01.018Z,3.67
2022-10-26T08:52:32.834Z,4.70
2022-10-26T08:55:04.273Z,2.38
2022-10-26T08:57:36.497Z,3.80
2022-10-26T09:00:06.209Z,3.20
2022-10-26T09:02:33.992Z,4.45
2022-10-26T09:05:01.851Z,3.85
2022-10-26T09:07:38.466Z,3.78
2022-10-26T09:10:17.908Z,2.50
2022-10-26T09:12:49.844Z,5.50
2022-10-26T09:15:25.652Z,3.10
2022-10-26T09:17:59.664Z,3.10
2022-10-26T09:20:42.017Z,3.40
2022-10-26T09:23:20.792Z,6.35
2022-10-26T09:25:56.283Z,3.10
2022-10-26T09:28:24.095Z,4.45
2022-10-26T09:30:58.804Z,4.30
2022-10-26T09:33:26.892Z,6.30
2022-10-26T09:36:00.243Z,4.00
2022-10-26T09:38:30.868Z,3.90
2022-10-26T09:41:04.063Z,3.58
2022-10-26T09:43:37.277Z,2.72
2022-10-26T09:46:05.001Z,6.35
2022-10-26T09:48:36.567Z,4.20
2022-10-26T09:51:04.954Z,4.78
2022-10-26T09:53:32.745Z,7.55
2022-10-26T09:56:06.301Z,6.18
2022-10-26T09:58:37.271Z,4.15
2022-10-26T10:01:05.134Z,2.90
2022-10-26T10:03:33.460Z,5.85
2022-10-26T10:06:17.480Z,3.60
2022-10-26T10:08:46.517Z,2.80
2022-10-26T10:11:16.441Z,7.03
2022-10-26T10:13:45.410Z,3.47
2022-10-26T10:16:21.058Z,3.90
2022-10-26T10:18:54.475Z,4.35
2022-10-26T10:21:22.571Z,5.22
2022-10-26T10:23:53.306Z,3.85
2022-10-26T10:26:22.309Z,3.50
2022-10-26T10:28:58.294Z,3.28
2022-10-26T10:31:29.618Z,5.03
2022-10-26T10:33:57.252Z,4.78
2022-10-26T10:36:29.313Z,5.70
2022-10-26T10:38:57.534Z,4.70
2022-10-26T10:41:29.941Z,4.63
2022-10-26T10:44:07.261Z,3.97
2022-10-26T10:46:35.217Z,4.15
2022-10-26T10:49:04.670Z,3.83
2022-10-26T10:51:37.773Z,5.07
2022-10-26T10:54:06.295Z,5.03
2022-10-26T10:56:42.070Z,5.05
2022-10-26T10:59:21.075Z,4.10
2022-10-26T11:01:51.213Z,2.85
2022-10-26T11:04:37.346Z,4.63
2022-10-26T11:07:06.374Z,4.68
2022-10-26T11:09:37.500Z,5.57
2022-10-26T11:12:11.128Z,4.90
2022-10-26T11:14:43.289Z,5.63
2022-10-26T11:17:18.006Z,9.20
2022-10-26T11:19:49.573Z,4.22
2022-10-26T11:22:22.343Z,4.93
2022-10-26T11:24:51.716Z,4.72
2022-10-26T11:27:25.117Z,5.43
2022-10-26T11:29:56.207Z,5.07
2022-10-26T11:32:25.434Z,3.55
2022-10-26T11:34:56.901Z,6.13
2022-10-26T11:37:29.014Z,4.32
2022-10-26T11:40:03.834Z,5.78
2022-10-26T11:42:37.526Z,3.65
2022-10-26T11:45:11.467Z,5.20
2022-10-26T11:47:42.897Z,5.07
2022-10-26T11:50:17.622Z,4.15
2022-10-26T11:52:49.450Z,4.40
2022-10-26T11:55:18.347Z,5.03
2022-10-26T11:57:48.005Z,3.87
2022-10-26T12:00:18.170Z,5.82
2022-10-26T12:02:49.660Z,5.85
2022-10-26T12:05:24.539Z,3.53
2022-10-26T12:07:54.647Z,5.85
2022-10-26T12:10:31.142Z,4.32
2022-10-26T12:13:05.870Z,3.55
2022-10-26T12:16:01.761Z,3.90
2022-10-26T12:18:50.374Z,5.55
2022-10-26T12:21:18.268Z,4.70
2022-10-26T12:23:56.182Z,4.75
2022-10-26T12:26:54.499Z,3.60
2022-10-26T12:29:38.114Z,5.13
2022-10-26T12:32:29.077Z,4.72
2022-10-26T12:35:01.899Z,3.80
2022-10-26T12:37:37.866Z,6.43
2022-10-26T12:40:40.726Z,8.77
2022-10-26T12:43:36.043Z,5.93
2022-10-26T12:46:43.362Z,6.07
2022-10-26T12:49:58.749Z,8.07
2022-10-26T12:52:34.152Z,6.85
2022-10-26T12:55:25.059Z,7.30
2022-10-26T12:57:59.971Z,5.63
2022-10-26T13:00:28.711Z,6.60
2022-10-26T13:03:08.035Z,4.75
2022-10-26T13:05:58.683Z,6.63
2022-10-26T13:08:28.601Z,5.43
2022-10-26T13:11:04.682Z,6.70
2022-10-26T13:13:33.378Z,6.05
2022-10-26T13:16:01.857Z,6.50
2022-10-26T13:18:30.676Z,8.05
2022-10-26T13:21:11.560Z,5.93
2022-10-26T13:23:42.007Z,5.43
2022-10-26T13:26:12.595Z,6.40
2022-10-26T13:28:51.250Z,4.70
2022-10-26T13:31:55.704Z,6.22
2022-10-26T13:34:24.454Z,7.53
2022-10-26T13:36:55.175Z,7.10
2022-10-26T13:39:27.471Z,5.60
2022-10-26T13:41:55.751Z,6.05
2022-10-26T13:44:26.967Z,8.80
2022-10-26T13:46:59.302Z,7.43
2022-10-26T13:49:31.466Z,4.93
2022-10-26T13:52:02.542Z,8.38
2022-10-26T13:54:36.572Z,5.60
2022-10-26T13:57:14.008Z,4.78
2022-10-26T13:59:44.695Z,4.18
2022-10-26T14:02:18.544Z,5.85
2022-10-26T14:04:49.774Z,5.95
2022-10-26T14:07:22.795Z,4.78
2022-10-26T14:09:57.513Z,4.28
2022-10-26T14:12:26.086Z,7.05
2022-10-26T14:14:54.900Z,6.30
2022-10-26T14:17:25.432Z,5.65
2022-10-26T14:19:53.754Z,7.37
2022-10-26T14:22:23.888Z,9.07
2022-10-26T14:24:53.072Z,7.43
2022-10-26T14:27:23.995Z,14.10
2022-10-26T14:32:39.939Z,6.90
2022-10-26T14:35:13.161Z,6.38
2022-10-26T14:37:45.285Z,5.90
2022-10-26T14:40:17.344Z,7.47
2022-10-26T14:42:50.548Z,5.47
2022-10-26T14:45:47.237Z,5.57
2022-10-26T14:48:22.697Z,5.65
2022-10-26T14:51:07.806Z,6.63
2022-10-26T14:53:38.139Z,7.82
2022-10-26T14:56:07.237Z,5.55
2022-10-26T14:58:36.974Z,4.88
2022-10-26T15:01:27.516Z,4.85
2022-10-26T15:03:58.401Z,4.95
2022-10-26T15:06:38.227Z,3.88
2022-10-26T15:09:06.870Z,4.00
2022-10-26T15:11:35.815Z,4.47
2022-10-26T15:14:04.915Z,4.68
2022-10-26T15:16:35.648Z,4.30
2022-10-26T15:19:10.985Z,3.95
2022-10-26T15:21:41.091Z,4.90
2022-10-26T15:24:33.151Z,4.68
2022-10-26T15:27:05.366Z,5.35
2022-10-26T15:29:42.825Z,5.57
2022-10-26T15:34:14.570Z,4.60
2022-10-26T15:36:43.562Z,3.47
2022-10-26T15:39:11.568Z,6.05
2022-10-26T15:41:45.893Z,2.80
2022-10-26T15:44:16.122Z,4.55
2022-10-26T15:46:44.109Z,3.90
2022-10-26T15:49:18.720Z,3.33
2022-10-26T15:51:47.583Z,3.47
2022-10-26T15:54:15.833Z,4.60
2022-10-26T15:56:44.736Z,4.43
2022-10-26T15:59:15.496Z,6.95
2022-10-26T16:01:43.233Z,7.10
2022-10-26T16:04:12.176Z,3.55
2022-10-26T16:06:42.888Z,5.50
2022-10-26T16:09:14.287Z,4.07
2022-10-26T16:11:41.965Z,4.47
2022-10-26T16:14:10.079Z,4.00
2022-10-26T16:16:38.976Z,4.57
2022-10-26T16:19:29.283Z,3.47
2022-10-26T16:21:55.766Z,4.63
2022-10-26T16:24:23.616Z,4.25
2022-10-26T16:26:51.382Z,5.70
2022-10-26T16:29:19.423Z,4.68
2022-10-26T16:31:47.126Z,5.82
2022-10-26T16:34:15.170Z,4.90
2022-10-26T16:36:42.834Z,4.80
2022-10-26T16:39:13.181Z,4.97
2022-10-26T16:41:40.858Z,4.20
2022-10-26T16:44:08.557Z,4.95
2022-10-26T16:46:36.234Z,4.38
2022-10-26T16:49:03.874Z,5.07
2022-10-26T16:51:31.807Z,4.95
2022-10-26T16:53:59.461Z,4.13
2022-10-26T16:56:30.282Z,5.53
2022-10-26T16:58:58.489Z,4.77
2022-10-26T17:01:26.607Z,6.53
2022-10-26T17:03:54.629Z,6.03
2022-10-26T17:06:22.695Z,6.60
2022-10-26T17:08:50.334Z,6.13
2022-10-26T17:11:19.640Z,6.17
2022-10-26T17:13:49.203Z,9.13
2022-10-26T17:16:20.716Z,6.57
2022-10-26T17:18:48.914Z,7.28
2022-10-26T17:21:17.661Z,5.75
2022-10-26T17:23:45.325Z,5.80
2022-10-26T17:26:14.641Z,5.82
2022-10-26T17:28:42.485Z,5.75
2022-10-26T17:31:13.503Z,8.57
2022-10-26T17:33:42.751Z,6.93
2022-10-26T17:36:11.926Z,6.45
2022-10-26T17:38:40.608Z,7.28
2022-10-26T17:41:10.087Z,4.72
2022-10-26T17:43:39.334Z,5.90
2022-10-26T17:46:08.106Z,6.30
2022-10-26T17:48:37.316Z,8.98
2022-10-26T17:51:07.121Z,6.07
2022-10-26T17:53:34.751Z,5.28
2022-10-26T17:56:02.992Z,7.95
2022-10-26T17:58:30.678Z,8.40
2022-10-26T18:01:01.519Z,6.80
2022-10-26T18:03:29.283Z,7.28
2022-10-26T18:07:32.115Z,6.97
2022-10-26T18:10:13.903Z,5.65
2022-10-26T18:12:47.329Z,6.68
2022-10-26T18:15:15.013Z,7.20
2022-10-26T18:17:42.726Z,7.60
2022-10-26T18:20:11.124Z,11.00
2022-10-26T18:22:40.179Z,8.35
2022-10-26T18:25:08.425Z,9.00
2022-10-26T18:27:36.055Z,9.13
2022-10-26T18:30:03.747Z,9.67
2022-10-26T18:32:31.448Z,6.55
2022-10-26T18:34:59.042Z,5.53
2022-10-26T18:37:26.835Z,5.10
2022-10-26T18:39:55.926Z,5.77
2022-10-26T18:42:23.601Z,5.05
2022-10-26T18:44:51.332Z,6.85
2022-10-26T18:47:19.127Z,6.47
2022-10-26T18:49:46.773Z,6.95
2022-10-26T18:52:14.407Z,5.72
2022-10-26T18:54:42.177Z,6.72
2022-10-26T18:57:11.162Z,7.55
2022-10-26T18:59:38.826Z,6.40
2022-10-26T19:04:34.013Z,7.32
2022-10-26T19:07:01.676Z,7.00
2022-10-26T19:09:29.382Z,7.07
2022-10-26T19:11:59.006Z,5.28
2022-10-26T19:14:30.523Z,6.47
2022-10-26T19:16:58.254Z,5.28
2022-10-26T19:19:26.073Z,5.28
2022-10-26T19:21:53.967Z,4.30
2022-10-26T19:24:23.714Z,6.90
2022-10-26T19:26:52.139Z,6.07
2022-10-26T19:29:20.687Z,5.35
2022-10-26T19:31:52.660Z,4.65
2022-10-26T19:34:20.587Z,5.93
2022-10-26T19:36:48.459Z,4.97
2022-10-26T19:39:16.864Z,6.45
2022-10-26T19:41:45.583Z,6.43
2022-10-26T19:44:14.573Z,7.00
2022-10-26T19:46:43.255Z,5.13
2022-10-26T19:49:13.562Z,6.35
2022-10-26T19:51:41.225Z,4.35
2022-10-26T19:54:08.923Z,6.18
2022-10-26T19:56:37.839Z,5.45
2022-10-26T19:59:05.851Z,7.03
2022-10-26T20:01:33.741Z,5.43
2022-10-26T20:04:03.096Z,4.93
2022-10-26T20:06:32.216Z,5.38
2022-10-26T20:09:00.250Z,5.25
2022-10-26T20:11:28.073Z,8.80
2022-10-26T20:13:56.494Z,6.07
2022-10-26T20:16:24.388Z,6.22
2022-10-26T20:18:52.045Z,5.97
2022-10-26T20:21:19.658Z,3.73
2022-10-26T20:23:48.843Z,4.78
2022-10-26T20:26:19.550Z,7.88
2022-10-26T20:28:47.919Z,4.35
2022-10-26T20:31:15.847Z,4.97
2022-10-26T20:33:43.656Z,4.78
2022-10-26T20:36:11.313Z,5.95
2022-10-26T20:38:40.148Z,3.95
2022-10-26T20:41:11.730Z,4.85
2022-10-26T20:43:39.971Z,5.10
2022-10-26T20:46:08.355Z,7.57
2022-10-26T20:48:38.536Z,6.30
2022-10-26T20:51:08.417Z,4.20
2022-10-26T20:53:37.256Z,4.35
2022-10-26T20:56:07.879Z,5.85
2022-10-26T20:58:40.890Z,4.40
2022-10-26T21:01:13.568Z,6.55
2022-10-26T21:03:41.238Z,5.57
2022-10-26T21:06:11.250Z,5.03
2022-10-26T21:08:38.984Z,6.13
2022-10-26T21:11:06.940Z,5.35
2022-10-26T21:13:34.595Z,4.70
2022-10-26T21:16:06.148Z,5.47
2022-10-26T21:18:33.859Z,6.45
2022-10-26T21:21:01.839Z,4.38
2022-10-26T21:23:32.592Z,6.35
2022-10-26T21:26:00.650Z,5.32
2022-10-26T21:28:33.282Z,5.17
2022-10-26T21:31:02.601Z,5.93
2022-10-26T21:33:32.235Z,3.90
2022-10-26T21:36:00.043Z,4.53
2022-10-26T21:38:27.928Z,7.10
2022-10-26T21:41:03.611Z,6.30
2022-10-26T21:43:31.435Z,4.80
2022-10-26T21:45:59.413Z,4.65
2022-10-26T21:48:27.707Z,4.70
2022-10-26T21:50:57.134Z,5.07
2022-10-26T21:53:24.891Z,5.53
2022-10-26T21:56:00.423Z,5.28
2022-10-26T21:58:28.121Z,4.50
2022-10-26T22:00:55.870Z,6.47
2022-10-26T22:03:23.634Z,7.60
2022-10-26T22:05:54.124Z,5.13
2022-10-26T22:08:23.152Z,4.45
2022-10-26T22:10:50.919Z,4.50
2022-10-26T22:13:18.666Z,5.00
2022-10-26T22:15:46.306Z,3.67
2022-10-26T22:18:13.941Z,4.38
2022-10-26T22:20:41.591Z,5.03
2022-10-26T22:23:10.257Z,4.38
2022-10-26T22:25:39.399Z,6.03
2022-10-26T22:28:07.026Z,5.80
2022-10-26T22:30:37.565Z,5.03
2022-10-26T22:33:05.290Z,4.47
2022-10-26T22:35:32.971Z,5.97
2022-10-26T22:38:00.602Z,4.32
2022-10-26T22:40:28.327Z,3.55
2022-10-26T22:42:57.371Z,5.15
2022-10-26T22:45:25.103Z,5.45
2022-10-26T22:47:52.754Z,4.88
2022-10-26T22:50:20.371Z,3.92
2022-10-26T22:52:48.186Z,7.50
2022-10-26T22:55:16.187Z,4.07
2022-10-26T22:57:43.814Z,5.85
2022-10-26T23:00:14.543Z,4.80
2022-10-26T23:02:42.154Z,3.67
2022-10-26T23:05:10.270Z,7.13
2022-10-26T23:07:37.914Z,5.95
2022-10-26T23:10:06.256Z,4.82
2022-10-26T23:12:33.918Z,4.45
2022-10-26T23:15:01.577Z,6.60
2022-10-26T23:17:30.842Z,4.90
2022-10-26T23:19:58.566Z,3.95
2022-10-26T23:22:26.255Z,5.57
2022-10-26T23:24:53.903Z,4.78
2022-10-26T23:27:21.545Z,3.83
2022-10-26T23:29:49.168Z,6.53
2022-10-26T23:32:16.809Z,6.40
2022-10-26T23:34:45.859Z,4.63
2022-10-26T23:37:13.514Z,4.13
2022-10-26T23:39:41.166Z,6.72
2022-10-26T23:42:08.832Z,4.60
2022-10-26T23:44:36.512Z,4.10
2022-10-26T23:47:04.194Z,4.72
2022-10-26T23:49:32.269Z,4.40
2022-10-26T23:52:01.309Z,5.38
2022-10-26T23:54:28.950Z,6.30
2022-10-26T23:56:56.580Z,5.47
2022-10-26T23:59:24.221Z,5.32
